sensor_id;sensor_type;location;lat;lon;timestamp;temperature;humidity
22035;DHT22;11181;51.002;4.356;2023-03-31T00:01:04;13.30;99.90
22035;DHT22;11181;51.002;4.356;2023-03-31T00:03:33;13.30;99.90
22035;DHT22;11181;51.002;4.356;2023-03-31T00:06:04;13.30;99.90
22035;DHT22;11181;51.002;4.356;2023-03-31T00:08:32;13.30;99.90
22035;DHT22;11181;51.002;4.356;2023-03-31T00:11:02;13.40;99.90
22035;DHT22;11181;51.002;4.356;2023-03-31T00:13:30;13.40;99.90
22035;DHT22;11181;51.002;4.356;2023-03-31T00:15:58;13.50;99.90
22035;DHT22;11181;51.002;4.356;2023-03-31T00:18:26;13.30;99.90
22035;DHT22;11181;51.002;4.356;2023-03-31T00:21:04;13.30;99.90
22035;DHT22;11181;51.002;4.356;2023-03-31T00:23:31;13.30;99.90
22035;DHT22;11181;51.002;4.356;2023-03-31T00:25:58;13.30;99.90
22035;DHT22;11181;51.002;4.356;2023-03-31T00:28:26;13.30;99.90
22035;DHT22;11181;51.002;4.356;2023-03-31T00:30:58;13.30;99.90
22035;DHT22;11181;51.002;4.356;2023-03-31T00:33:25;13.20;99.90
22035;DHT22;11181;51.002;4.356;2023-03-31T00:35:52;13.10;99.90
22035;DHT22;11181;51.002;4.356;2023-03-31T00:38:21;13.10;99.90
22035;DHT22;11181;51.002;4.356;2023-03-31T00:40:48;13.00;99.90
22035;DHT22;11181;51.002;4.356;2023-03-31T00:43:26;12.90;99.90
22035;DHT22;11181;51.002;4.356;2023-03-31T00:45:57;13.00;99.90
22035;DHT22;11181;51.002;4.356;2023-03-31T00:48:27;12.90;99.90
22035;DHT22;11181;51.002;4.356;2023-03-31T00:50:55;12.80;99.90
22035;DHT22;11181;51.002;4.356;2023-03-31T00:53:27;12.70;99.90
22035;DHT22;11181;51.002;4.356;2023-03-31T00:55:58;12.60;99.90
22035;DHT22;11181;51.002;4.356;2023-03-31T00:58:27;12.60;99.90
22035;DHT22;11181;51.002;4.356;2023-03-31T01:00:56;12.50;99.90
22035;DHT22;11181;51.002;4.356;2023-03-31T01:03:23;12.50;99.90
22035;DHT22;11181;51.002;4.356;2023-03-31T01:05:53;12.50;99.90
22035;DHT22;11181;51.002;4.356;2023-03-31T01:08:25;12.50;99.90
22035;DHT22;11181;51.002;4.356;2023-03-31T01:10:55;12.60;99.90
22035;DHT22;11181;51.002;4.356;2023-03-31T01:13:23;12.60;99.90
22035;DHT22;11181;51.002;4.356;2023-03-31T01:15:52;12.60;99.90
22035;DHT22;11181;51.002;4.356;2023-03-31T01:18:19;12.70;99.90
22035;DHT22;11181;51.002;4.356;2023-03-31T01:26:59;12.60;99.90
22035;DHT22;11181;51.002;4.356;2023-03-31T01:29:58;12.70;99.90
22035;DHT22;11181;51.002;4.356;2023-03-31T01:36:06;12.60;99.90
22035;DHT22;11181;51.002;4.356;2023-03-31T01:39:08;12.50;99.90
22035;DHT22;11181;51.002;4.356;2023-03-31T01:41:45;12.60;99.90
22035;DHT22;11181;51.002;4.356;2023-03-31T01:44:21;12.50;99.90
22035;DHT22;11181;51.002;4.356;2023-03-31T01:46:53;12.50;99.90
22035;DHT22;11181;51.002;4.356;2023-03-31T01:49:25;12.50;99.90
22035;DHT22;11181;51.002;4.356;2023-03-31T01:51:59;12.50;99.90
22035;DHT22;11181;51.002;4.356;2023-03-31T01:54:33;12.50;99.90
22035;DHT22;11181;51.002;4.356;2023-03-31T01:57:10;12.40;99.90
22035;DHT22;11181;51.002;4.356;2023-03-31T01:59:43;12.40;99.90
22035;DHT22;11181;51.002;4.356;2023-03-31T02:02:16;12.30;99.90
22035;DHT22;11181;51.002;4.356;2023-03-31T02:04:47;12.40;99.90
22035;DHT22;11181;51.002;4.356;2023-03-31T02:07:17;12.60;99.90
22035;DHT22;11181;51.002;4.356;2023-03-31T02:09:48;12.60;99.90
22035;DHT22;11181;51.002;4.356;2023-03-31T02:12:19;12.60;99.90
22035;DHT22;11181;51.002;4.356;2023-03-31T02:14:49;12.60;99.90
22035;DHT22;11181;51.002;4.356;2023-03-31T02:17:19;12.50;99.90
22035;DHT22;11181;51.002;4.356;2023-03-31T02:19:49;12.50;99.90
22035;DHT22;11181;51.002;4.356;2023-03-31T02:22:20;12.40;99.90
22035;DHT22;11181;51.002;4.356;2023-03-31T02:24:50;12.40;99.90
22035;DHT22;11181;51.002;4.356;2023-03-31T02:27:22;12.30;99.90
22035;DHT22;11181;51.002;4.356;2023-03-31T02:29:51;12.20;99.90
22035;DHT22;11181;51.002;4.356;2023-03-31T02:32:21;12.10;99.90
22035;DHT22;11181;51.002;4.356;2023-03-31T02:34:49;12.00;99.90
22035;DHT22;11181;51.002;4.356;2023-03-31T02:37:16;12.00;99.90
22035;DHT22;11181;51.002;4.356;2023-03-31T02:39:44;12.00;99.90
22035;DHT22;11181;51.002;4.356;2023-03-31T02:42:13;12.00;99.90
22035;DHT22;11181;51.002;4.356;2023-03-31T02:44:42;12.00;99.90
22035;DHT22;11181;51.002;4.356;2023-03-31T02:47:11;12.00;99.90
22035;DHT22;11181;51.002;4.356;2023-03-31T02:49:40;12.00;99.90
22035;DHT22;11181;51.002;4.356;2023-03-31T02:52:23;12.20;99.90
22035;DHT22;11181;51.002;4.356;2023-03-31T02:55:29;12.30;99.90
22035;DHT22;11181;51.002;4.356;2023-03-31T02:58:28;12.30;99.90
22035;DHT22;11181;51.002;4.356;2023-03-31T03:01:20;12.30;99.90
22035;DHT22;11181;51.002;4.356;2023-03-31T03:04:00;12.50;99.90
22035;DHT22;11181;51.002;4.356;2023-03-31T03:06:40;12.50;99.90
22035;DHT22;11181;51.002;4.356;2023-03-31T03:09:17;12.60;99.90
22035;DHT22;11181;51.002;4.356;2023-03-31T03:11:53;12.60;99.90
22035;DHT22;11181;51.002;4.356;2023-03-31T03:14:30;12.60;99.90
22035;DHT22;11181;51.002;4.356;2023-03-31T03:17:06;12.70;99.90
22035;DHT22;11181;51.002;4.356;2023-03-31T03:19:35;12.70;99.90
22035;DHT22;11181;51.002;4.356;2023-03-31T03:22:02;12.70;99.90
22035;DHT22;11181;51.002;4.356;2023-03-31T03:24:29;12.70;99.90
22035;DHT22;11181;51.002;4.356;2023-03-31T03:26:59;12.80;99.90
22035;DHT22;11181;51.002;4.356;2023-03-31T03:29:26;12.90;99.90
22035;DHT22;11181;51.002;4.356;2023-03-31T03:31:53;13.00;99.90
22035;DHT22;11181;51.002;4.356;2023-03-31T03:34:22;13.00;99.90
22035;DHT22;11181;51.002;4.356;2023-03-31T03:36:50;12.90;99.90
22035;DHT22;11181;51.002;4.356;2023-03-31T03:39:17;12.90;99.90
22035;DHT22;11181;51.002;4.356;2023-03-31T03:41:44;13.00;99.90
22035;DHT22;11181;51.002;4.356;2023-03-31T03:44:11;13.00;99.90
22035;DHT22;11181;51.002;4.356;2023-03-31T03:46:38;13.10;99.90
22035;DHT22;11181;51.002;4.356;2023-03-31T03:49:05;13.10;99.90
22035;DHT22;11181;51.002;4.356;2023-03-31T03:51:33;13.10;99.90
22035;DHT22;11181;51.002;4.356;2023-03-31T03:54:00;13.10;99.90
22035;DHT22;11181;51.002;4.356;2023-03-31T03:56:27;13.20;99.90
22035;DHT22;11181;51.002;4.356;2023-03-31T03:58:54;13.00;99.90
22035;DHT22;11181;51.002;4.356;2023-03-31T04:01:22;12.90;99.90
22035;DHT22;11181;51.002;4.356;2023-03-31T04:03:49;12.60;99.90
22035;DHT22;11181;51.002;4.356;2023-03-31T04:06:16;12.50;99.90
22035;DHT22;11181;51.002;4.356;2023-03-31T04:08:44;12.30;99.90
22035;DHT22;11181;51.002;4.356;2023-03-31T04:11:13;12.30;99.90
22035;DHT22;11181;51.002;4.356;2023-03-31T04:13:42;12.30;99.90
22035;DHT22;11181;51.002;4.356;2023-03-31T04:16:09;12.20;99.90
22035;DHT22;11181;51.002;4.356;2023-03-31T04:18:36;12.00;99.90
22035;DHT22;11181;51.002;4.356;2023-03-31T04:21:07;12.00;99.90
22035;DHT22;11181;51.002;4.356;2023-03-31T04:23:37;11.90;99.90
22035;DHT22;11181;51.002;4.356;2023-03-31T04:26:09;11.90;99.90
22035;DHT22;11181;51.002;4.356;2023-03-31T04:28:36;11.90;99.90
22035;DHT22;11181;51.002;4.356;2023-03-31T04:31:09;11.80;99.90
22035;DHT22;11181;51.002;4.356;2023-03-31T04:33:41;11.60;99.90
22035;DHT22;11181;51.002;4.356;2023-03-31T04:36:11;11.60;99.90
22035;DHT22;11181;51.002;4.356;2023-03-31T04:38:42;11.40;99.90
22035;DHT22;11181;51.002;4.356;2023-03-31T04:41:12;11.50;99.90
22035;DHT22;11181;51.002;4.356;2023-03-31T04:43:40;11.40;99.90
22035;DHT22;11181;51.002;4.356;2023-03-31T04:46:07;11.40;99.90
22035;DHT22;11181;51.002;4.356;2023-03-31T04:48:34;11.40;99.90
22035;DHT22;11181;51.002;4.356;2023-03-31T04:51:01;11.40;99.90
22035;DHT22;11181;51.002;4.356;2023-03-31T04:53:28;11.40;99.90
22035;DHT22;11181;51.002;4.356;2023-03-31T04:55:55;11.50;99.90
22035;DHT22;11181;51.002;4.356;2023-03-31T04:58:23;11.40;99.90
22035;DHT22;11181;51.002;4.356;2023-03-31T05:00:50;11.40;99.90
22035;DHT22;11181;51.002;4.356;2023-03-31T05:03:18;11.50;99.90
22035;DHT22;11181;51.002;4.356;2023-03-31T05:05:45;11.40;99.90
22035;DHT22;11181;51.002;4.356;2023-03-31T05:08:12;11.30;99.90
22035;DHT22;11181;51.002;4.356;2023-03-31T05:10:39;11.30;99.90
22035;DHT22;11181;51.002;4.356;2023-03-31T05:13:08;11.30;99.90
22035;DHT22;11181;51.002;4.356;2023-03-31T05:15:38;11.30;99.90
22035;DHT22;11181;51.002;4.356;2023-03-31T05:18:05;11.40;99.90
22035;DHT22;11181;51.002;4.356;2023-03-31T05:20:32;11.40;99.90
22035;DHT22;11181;51.002;4.356;2023-03-31T05:22:59;11.50;99.90
22035;DHT22;11181;51.002;4.356;2023-03-31T05:25:26;11.50;99.90
22035;DHT22;11181;51.002;4.356;2023-03-31T05:27:57;11.50;99.90
22035;DHT22;11181;51.002;4.356;2023-03-31T05:30:25;11.50;99.90
22035;DHT22;11181;51.002;4.356;2023-03-31T05:32:54;11.60;99.90
22035;DHT22;11181;51.002;4.356;2023-03-31T05:35:22;11.70;99.90
22035;DHT22;11181;51.002;4.356;2023-03-31T05:37:49;11.70;99.90
22035;DHT22;11181;51.002;4.356;2023-03-31T05:40:16;11.80;99.90
22035;DHT22;11181;51.002;4.356;2023-03-31T05:42:43;11.80;99.90
22035;DHT22;11181;51.002;4.356;2023-03-31T05:45:10;11.80;99.90
22035;DHT22;11181;51.002;4.356;2023-03-31T05:47:37;11.80;99.90
22035;DHT22;11181;51.002;4.356;2023-03-31T05:50:06;11.80;99.90
22035;DHT22;11181;51.002;4.356;2023-03-31T05:52:34;11.80;99.90
22035;DHT22;11181;51.002;4.356;2023-03-31T05:55:01;11.70;99.90
22035;DHT22;11181;51.002;4.356;2023-03-31T05:57:29;11.70;99.90
22035;DHT22;11181;51.002;4.356;2023-03-31T05:59:56;11.80;99.90
22035;DHT22;11181;51.002;4.356;2023-03-31T06:02:23;11.90;99.90
22035;DHT22;11181;51.002;4.356;2023-03-31T06:04:50;11.90;99.90
22035;DHT22;11181;51.002;4.356;2023-03-31T06:07:18;12.10;99.90
22035;DHT22;11181;51.002;4.356;2023-03-31T06:09:46;12.10;99.90
22035;DHT22;11181;51.002;4.356;2023-03-31T06:12:13;12.20;99.90
22035;DHT22;11181;51.002;4.356;2023-03-31T06:14:41;12.20;99.90
22035;DHT22;11181;51.002;4.356;2023-03-31T06:17:08;12.20;99.90
22035;DHT22;11181;51.002;4.356;2023-03-31T06:19:35;12.20;99.90
22035;DHT22;11181;51.002;4.356;2023-03-31T06:22:02;12.30;99.90
22035;DHT22;11181;51.002;4.356;2023-03-31T06:24:31;12.30;99.90
22035;DHT22;11181;51.002;4.356;2023-03-31T06:26:58;12.40;99.90
22035;DHT22;11181;51.002;4.356;2023-03-31T06:29:26;12.30;99.90
22035;DHT22;11181;51.002;4.356;2023-03-31T06:31:53;12.40;99.90
22035;DHT22;11181;51.002;4.356;2023-03-31T06:34:20;12.50;99.90
22035;DHT22;11181;51.002;4.356;2023-03-31T06:36:47;12.40;99.90
22035;DHT22;11181;51.002;4.356;2023-03-31T06:39:14;12.50;99.90
22035;DHT22;11181;51.002;4.356;2023-03-31T06:41:42;12.50;99.90
22035;DHT22;11181;51.002;4.356;2023-03-31T06:44:09;12.50;99.90
22035;DHT22;11181;51.002;4.356;2023-03-31T06:46:37;12.50;99.90
22035;DHT22;11181;51.002;4.356;2023-03-31T06:49:04;12.50;99.90
22035;DHT22;11181;51.002;4.356;2023-03-31T06:51:31;12.60;99.90
22035;DHT22;11181;51.002;4.356;2023-03-31T06:53:57;12.70;99.90
22035;DHT22;11181;51.002;4.356;2023-03-31T06:56:24;12.70;99.90
22035;DHT22;11181;51.002;4.356;2023-03-31T06:58:55;12.80;99.90
22035;DHT22;11181;51.002;4.356;2023-03-31T07:01:22;12.80;99.90
22035;DHT22;11181;51.002;4.356;2023-03-31T07:03:49;12.80;99.90
22035;DHT22;11181;51.002;4.356;2023-03-31T07:06:16;12.70;99.90
22035;DHT22;11181;51.002;4.356;2023-03-31T07:08:43;12.80;99.90
22035;DHT22;11181;51.002;4.356;2023-03-31T07:11:10;12.80;99.90
22035;DHT22;11181;51.002;4.356;2023-03-31T07:13:37;12.80;99.90
22035;DHT22;11181;51.002;4.356;2023-03-31T07:16:06;12.90;99.90
22035;DHT22;11181;51.002;4.356;2023-03-31T07:18:34;12.90;99.90
22035;DHT22;11181;51.002;4.356;2023-03-31T07:21:03;12.90;99.90
22035;DHT22;11181;51.002;4.356;2023-03-31T07:23:32;12.90;99.90
22035;DHT22;11181;51.002;4.356;2023-03-31T07:25:59;12.90;99.90
22035;DHT22;11181;51.002;4.356;2023-03-31T07:28:27;12.80;99.90
22035;DHT22;11181;51.002;4.356;2023-03-31T07:30:54;12.90;99.90
22035;DHT22;11181;51.002;4.356;2023-03-31T07:33:23;12.90;99.90
22035;DHT22;11181;51.002;4.356;2023-03-31T07:35:50;12.90;99.90
22035;DHT22;11181;51.002;4.356;2023-03-31T07:38:17;12.80;99.90
22035;DHT22;11181;51.002;4.356;2023-03-31T07:40:44;12.80;99.90
22035;DHT22;11181;51.002;4.356;2023-03-31T07:43:11;12.70;99.90
22035;DHT22;11181;51.002;4.356;2023-03-31T07:45:39;12.80;99.90
22035;DHT22;11181;51.002;4.356;2023-03-31T07:48:07;12.70;99.90
22035;DHT22;11181;51.002;4.356;2023-03-31T07:50:35;12.70;99.90
22035;DHT22;11181;51.002;4.356;2023-03-31T07:53:03;12.70;99.90
22035;DHT22;11181;51.002;4.356;2023-03-31T07:55:30;12.70;99.90
22035;DHT22;11181;51.002;4.356;2023-03-31T07:57:57;12.70;99.90
22035;DHT22;11181;51.002;4.356;2023-03-31T08:00:24;12.70;99.90
22035;DHT22;11181;51.002;4.356;2023-03-31T08:02:51;12.70;99.90
22035;DHT22;11181;51.002;4.356;2023-03-31T08:05:19;12.70;99.90
22035;DHT22;11181;51.002;4.356;2023-03-31T08:07:49;12.70;99.90
22035;DHT22;11181;51.002;4.356;2023-03-31T08:10:19;12.70;99.90
22035;DHT22;11181;51.002;4.356;2023-03-31T08:12:46;12.70;99.90
22035;DHT22;11181;51.002;4.356;2023-03-31T08:15:14;12.80;99.90
22035;DHT22;11181;51.002;4.356;2023-03-31T08:17:41;12.80;99.90
22035;DHT22;11181;51.002;4.356;2023-03-31T08:20:09;12.80;99.90
22035;DHT22;11181;51.002;4.356;2023-03-31T08:22:37;12.80;99.90
22035;DHT22;11181;51.002;4.356;2023-03-31T08:25:08;12.70;99.90
22035;DHT22;11181;51.002;4.356;2023-03-31T08:27:36;12.70;99.90
22035;DHT22;11181;51.002;4.356;2023-03-31T08:30:04;12.80;99.90
22035;DHT22;11181;51.002;4.356;2023-03-31T08:32:31;12.90;99.90
22035;DHT22;11181;51.002;4.356;2023-03-31T08:34:59;12.80;99.90
22035;DHT22;11181;51.002;4.356;2023-03-31T08:37:26;12.80;99.90
22035;DHT22;11181;51.002;4.356;2023-03-31T08:39:53;12.80;99.90
22035;DHT22;11181;51.002;4.356;2023-03-31T08:42:32;12.70;99.90
22035;DHT22;11181;51.002;4.356;2023-03-31T08:45:03;12.70;99.90
22035;DHT22;11181;51.002;4.356;2023-03-31T08:47:36;12.80;99.90
22035;DHT22;11181;51.002;4.356;2023-03-31T08:50:07;12.80;99.90
22035;DHT22;11181;51.002;4.356;2023-03-31T08:52:41;12.90;99.90
22035;DHT22;11181;51.002;4.356;2023-03-31T08:55:15;12.80;99.90
22035;DHT22;11181;51.002;4.356;2023-03-31T08:57:53;12.90;99.90
22035;DHT22;11181;51.002;4.356;2023-03-31T09:00:20;12.90;99.90
22035;DHT22;11181;51.002;4.356;2023-03-31T09:02:50;12.80;99.90
22035;DHT22;11181;51.002;4.356;2023-03-31T09:05:36;12.80;99.90
22035;DHT22;11181;51.002;4.356;2023-03-31T09:08:15;12.90;99.90
22035;DHT22;11181;51.002;4.356;2023-03-31T09:10:52;12.90;99.90
22035;DHT22;11181;51.002;4.356;2023-03-31T09:13:46;13.00;99.90
22035;DHT22;11181;51.002;4.356;2023-03-31T09:16:19;13.10;99.90
22035;DHT22;11181;51.002;4.356;2023-03-31T09:18:47;13.10;99.90
22035;DHT22;11181;51.002;4.356;2023-03-31T09:21:20;13.10;99.90
22035;DHT22;11181;51.002;4.356;2023-03-31T09:23:52;13.10;99.90
22035;DHT22;11181;51.002;4.356;2023-03-31T09:26:26;13.10;99.90
22035;DHT22;11181;51.002;4.356;2023-03-31T09:29:00;13.10;99.90
22035;DHT22;11181;51.002;4.356;2023-03-31T09:31:30;13.10;99.90
22035;DHT22;11181;51.002;4.356;2023-03-31T09:34:00;13.20;99.90
22035;DHT22;11181;51.002;4.356;2023-03-31T09:36:28;13.10;99.90
22035;DHT22;11181;51.002;4.356;2023-03-31T09:38:55;13.10;99.90
22035;DHT22;11181;51.002;4.356;2023-03-31T09:41:22;13.10;99.90
22035;DHT22;11181;51.002;4.356;2023-03-31T09:43:49;13.20;99.90
22035;DHT22;11181;51.002;4.356;2023-03-31T09:46:23;13.10;99.90
22035;DHT22;11181;51.002;4.356;2023-03-31T09:48:57;13.20;99.90
22035;DHT22;11181;51.002;4.356;2023-03-31T09:51:28;13.10;99.90
22035;DHT22;11181;51.002;4.356;2023-03-31T09:54:00;13.10;99.90
22035;DHT22;11181;51.002;4.356;2023-03-31T09:56:43;13.10;99.90
22035;DHT22;11181;51.002;4.356;2023-03-31T09:59:14;13.00;99.90
22035;DHT22;11181;51.002;4.356;2023-03-31T10:01:44;13.00;99.90
22035;DHT22;11181;51.002;4.356;2023-03-31T10:04:20;12.80;99.90
22035;DHT22;11181;51.002;4.356;2023-03-31T10:06:48;12.70;99.90
22035;DHT22;11181;51.002;4.356;2023-03-31T10:09:18;12.70;99.90
22035;DHT22;11181;51.002;4.356;2023-03-31T10:11:54;12.70;99.90
22035;DHT22;11181;51.002;4.356;2023-03-31T10:14:31;12.80;99.90
22035;DHT22;11181;51.002;4.356;2023-03-31T10:17:03;12.80;99.90
22035;DHT22;11181;51.002;4.356;2023-03-31T10:19:32;12.70;99.90
22035;DHT22;11181;51.002;4.356;2023-03-31T10:22:01;12.80;99.90
22035;DHT22;11181;51.002;4.356;2023-03-31T10:24:37;12.90;99.90
22035;DHT22;11181;51.002;4.356;2023-03-31T10:27:06;12.90;99.90
22035;DHT22;11181;51.002;4.356;2023-03-31T10:29:33;13.00;99.90
22035;DHT22;11181;51.002;4.356;2023-03-31T10:32:14;13.00;99.90
22035;DHT22;11181;51.002;4.356;2023-03-31T10:34:45;12.90;99.90
22035;DHT22;11181;51.002;4.356;2023-03-31T10:37:16;13.00;99.90
22035;DHT22;11181;51.002;4.356;2023-03-31T10:39:44;13.00;99.90
22035;DHT22;11181;51.002;4.356;2023-03-31T10:42:19;13.00;99.90
22035;DHT22;11181;51.002;4.356;2023-03-31T10:44:46;13.00;99.90
22035;DHT22;11181;51.002;4.356;2023-03-31T10:47:19;12.90;99.90
22035;DHT22;11181;51.002;4.356;2023-03-31T10:49:49;12.90;99.90
22035;DHT22;11181;51.002;4.356;2023-03-31T10:52:19;13.00;99.90
22035;DHT22;11181;51.002;4.356;2023-03-31T10:54:48;13.00;99.90
22035;DHT22;11181;51.002;4.356;2023-03-31T10:57:17;13.10;99.90
22035;DHT22;11181;51.002;4.356;2023-03-31T11:00:01;13.20;99.90
22035;DHT22;11181;51.002;4.356;2023-03-31T11:05:37;13.40;99.90
22035;DHT22;11181;51.002;4.356;2023-03-31T11:08:18;13.40;99.90
22035;DHT22;11181;51.002;4.356;2023-03-31T11:11:10;13.40;99.90
22035;DHT22;11181;51.002;4.356;2023-03-31T11:13:45;13.40;99.90
22035;DHT22;11181;51.002;4.356;2023-03-31T11:16:17;13.40;99.90
22035;DHT22;11181;51.002;4.356;2023-03-31T11:18:58;13.40;99.90
22035;DHT22;11181;51.002;4.356;2023-03-31T11:21:35;13.40;99.90
22035;DHT22;11181;51.002;4.356;2023-03-31T11:24:13;13.50;99.90
22035;DHT22;11181;51.002;4.356;2023-03-31T11:26:47;13.50;99.90
22035;DHT22;11181;51.002;4.356;2023-03-31T11:29:29;13.60;99.90
22035;DHT22;11181;51.002;4.356;2023-03-31T11:32:27;13.50;99.90
22035;DHT22;11181;51.002;4.356;2023-03-31T11:35:09;13.50;99.90
22035;DHT22;11181;51.002;4.356;2023-03-31T11:38:07;13.50;99.90
22035;DHT22;11181;51.002;4.356;2023-03-31T11:40:50;13.60;99.90
22035;DHT22;11181;51.002;4.356;2023-03-31T11:43:25;13.70;99.90
22035;DHT22;11181;51.002;4.356;2023-03-31T11:45:58;13.70;99.90
22035;DHT22;11181;51.002;4.356;2023-03-31T11:48:35;13.80;99.90
22035;DHT22;11181;51.002;4.356;2023-03-31T11:51:10;13.90;99.90
22035;DHT22;11181;51.002;4.356;2023-03-31T11:53:39;13.80;99.90
22035;DHT22;11181;51.002;4.356;2023-03-31T11:56:09;13.70;99.90
22035;DHT22;11181;51.002;4.356;2023-03-31T11:58:38;13.70;99.90
22035;DHT22;11181;51.002;4.356;2023-03-31T12:01:15;13.60;99.90
22035;DHT22;11181;51.002;4.356;2023-03-31T12:03:50;13.60;99.90
22035;DHT22;11181;51.002;4.356;2023-03-31T12:06:22;13.50;99.90
22035;DHT22;11181;51.002;4.356;2023-03-31T12:09:00;13.50;99.90
22035;DHT22;11181;51.002;4.356;2023-03-31T12:11:34;13.40;99.90
22035;DHT22;11181;51.002;4.356;2023-03-31T12:14:13;13.50;99.90
22035;DHT22;11181;51.002;4.356;2023-03-31T12:16:42;13.50;99.90
22035;DHT22;11181;51.002;4.356;2023-03-31T12:19:14;13.40;99.90
22035;DHT22;11181;51.002;4.356;2023-03-31T12:21:48;13.40;99.90
22035;DHT22;11181;51.002;4.356;2023-03-31T12:24:16;13.40;99.90
22035;DHT22;11181;51.002;4.356;2023-03-31T12:26:49;13.40;99.90
22035;DHT22;11181;51.002;4.356;2023-03-31T12:29:25;13.30;99.90
22035;DHT22;11181;51.002;4.356;2023-03-31T12:31:55;13.30;99.90
22035;DHT22;11181;51.002;4.356;2023-03-31T12:34:24;13.30;99.90
22035;DHT22;11181;51.002;4.356;2023-03-31T12:37:04;13.20;99.90
22035;DHT22;11181;51.002;4.356;2023-03-31T12:39:43;13.20;99.90
22035;DHT22;11181;51.002;4.356;2023-03-31T12:45:16;12.90;99.90
22035;DHT22;11181;51.002;4.356;2023-03-31T12:48:08;12.90;99.90
22035;DHT22;11181;51.002;4.356;2023-03-31T12:53:32;12.90;99.90
22035;DHT22;11181;51.002;4.356;2023-03-31T12:56:00;13.00;99.90
22035;DHT22;11181;51.002;4.356;2023-03-31T12:58:38;12.90;99.90
22035;DHT22;11181;51.002;4.356;2023-03-31T13:01:11;12.80;99.90
22035;DHT22;11181;51.002;4.356;2023-03-31T13:03:48;12.90;99.90
22035;DHT22;11181;51.002;4.356;2023-03-31T13:09:43;12.80;99.90
22035;DHT22;11181;51.002;4.356;2023-03-31T13:12:16;12.90;99.90
22035;DHT22;11181;51.002;4.356;2023-03-31T13:14:45;12.90;99.90
22035;DHT22;11181;51.002;4.356;2023-03-31T13:17:24;12.90;99.90
22035;DHT22;11181;51.002;4.356;2023-03-31T13:19:52;12.90;99.90
22035;DHT22;11181;51.002;4.356;2023-03-31T13:22:32;12.90;99.90
22035;DHT22;11181;51.002;4.356;2023-03-31T13:28:13;12.90;99.90
22035;DHT22;11181;51.002;4.356;2023-03-31T13:30:51;12.80;99.90
22035;DHT22;11181;51.002;4.356;2023-03-31T13:33:34;12.90;99.90
22035;DHT22;11181;51.002;4.356;2023-03-31T13:36:18;12.90;99.90
22035;DHT22;11181;51.002;4.356;2023-03-31T13:39:02;12.90;99.90
22035;DHT22;11181;51.002;4.356;2023-03-31T13:41:45;13.00;99.90
22035;DHT22;11181;51.002;4.356;2023-03-31T13:44:32;12.90;99.90
22035;DHT22;11181;51.002;4.356;2023-03-31T13:50:43;13.00;99.90
22035;DHT22;11181;51.002;4.356;2023-03-31T13:53:33;13.00;99.90
22035;DHT22;11181;51.002;4.356;2023-03-31T13:56:19;13.10;99.90
22035;DHT22;11181;51.002;4.356;2023-03-31T13:59:10;13.10;99.90
22035;DHT22;11181;51.002;4.356;2023-03-31T14:02:12;13.10;99.90
22035;DHT22;11181;51.002;4.356;2023-03-31T14:05:05;13.10;99.90
22035;DHT22;11181;51.002;4.356;2023-03-31T14:07:39;13.20;99.90
22035;DHT22;11181;51.002;4.356;2023-03-31T14:10:25;13.10;99.90
22035;DHT22;11181;51.002;4.356;2023-03-31T14:13:04;13.10;99.90
22035;DHT22;11181;51.002;4.356;2023-03-31T14:15:32;13.10;99.90
22035;DHT22;11181;51.002;4.356;2023-03-31T14:18:02;13.00;99.90
22035;DHT22;11181;51.002;4.356;2023-03-31T14:20:40;13.00;99.90
22035;DHT22;11181;51.002;4.356;2023-03-31T14:23:17;13.00;99.90
22035;DHT22;11181;51.002;4.356;2023-03-31T14:25:54;12.90;99.90
22035;DHT22;11181;51.002;4.356;2023-03-31T14:28:46;12.90;99.90
22035;DHT22;11181;51.002;4.356;2023-03-31T14:31:22;12.90;99.90
22035;DHT22;11181;51.002;4.356;2023-03-31T14:34:07;12.80;99.90
22035;DHT22;11181;51.002;4.356;2023-03-31T14:36:45;12.90;99.90
22035;DHT22;11181;51.002;4.356;2023-03-31T14:39:17;12.90;99.90
22035;DHT22;11181;51.002;4.356;2023-03-31T14:41:51;12.90;99.90
22035;DHT22;11181;51.002;4.356;2023-03-31T14:44:19;12.90;99.90
22035;DHT22;11181;51.002;4.356;2023-03-31T14:46:46;12.80;99.90
22035;DHT22;11181;51.002;4.356;2023-03-31T14:49:21;12.70;99.90
22035;DHT22;11181;51.002;4.356;2023-03-31T14:51:51;12.70;99.90
22035;DHT22;11181;51.002;4.356;2023-03-31T14:54:20;12.80;99.90
22035;DHT22;11181;51.002;4.356;2023-03-31T14:56:49;12.80;99.90
22035;DHT22;11181;51.002;4.356;2023-03-31T14:59:20;12.80;99.90
22035;DHT22;11181;51.002;4.356;2023-03-31T15:01:49;12.70;99.90
22035;DHT22;11181;51.002;4.356;2023-03-31T15:04:21;12.60;99.90
22035;DHT22;11181;51.002;4.356;2023-03-31T15:06:49;12.70;99.90
22035;DHT22;11181;51.002;4.356;2023-03-31T15:09:21;12.60;99.90
22035;DHT22;11181;51.002;4.356;2023-03-31T15:11:54;12.60;99.90
22035;DHT22;11181;51.002;4.356;2023-03-31T15:14:23;12.50;99.90
22035;DHT22;11181;51.002;4.356;2023-03-31T15:16:54;12.40;99.90
22035;DHT22;11181;51.002;4.356;2023-03-31T15:19:25;12.30;99.90
22035;DHT22;11181;51.002;4.356;2023-03-31T15:21:54;12.30;99.90
22035;DHT22;11181;51.002;4.356;2023-03-31T15:24:21;12.30;99.90
22035;DHT22;11181;51.002;4.356;2023-03-31T15:26:53;12.30;99.90
22035;DHT22;11181;51.002;4.356;2023-03-31T15:29:27;12.40;99.90
22035;DHT22;11181;51.002;4.356;2023-03-31T15:31:57;12.40;99.90
22035;DHT22;11181;51.002;4.356;2023-03-31T15:34:32;12.40;99.90
22035;DHT22;11181;51.002;4.356;2023-03-31T15:37:01;12.40;99.90
22035;DHT22;11181;51.002;4.356;2023-03-31T15:39:30;12.50;99.90
22035;DHT22;11181;51.002;4.356;2023-03-31T15:42:00;12.50;99.90
22035;DHT22;11181;51.002;4.356;2023-03-31T15:44:34;12.60;99.90
22035;DHT22;11181;51.002;4.356;2023-03-31T15:47:07;12.60;99.90
22035;DHT22;11181;51.002;4.356;2023-03-31T15:49:35;12.60;99.90
22035;DHT22;11181;51.002;4.356;2023-03-31T15:52:02;12.50;99.90
22035;DHT22;11181;51.002;4.356;2023-03-31T15:54:35;12.50;99.90
22035;DHT22;11181;51.002;4.356;2023-03-31T15:57:03;12.40;99.90
22035;DHT22;11181;51.002;4.356;2023-03-31T15:59:42;12.40;99.90
22035;DHT22;11181;51.002;4.356;2023-03-31T16:02:10;12.40;99.90
22035;DHT22;11181;51.002;4.356;2023-03-31T16:04:40;12.30;99.90
22035;DHT22;11181;51.002;4.356;2023-03-31T16:07:12;12.30;99.90
22035;DHT22;11181;51.002;4.356;2023-03-31T16:09:45;12.20;99.90
22035;DHT22;11181;51.002;4.356;2023-03-31T16:12:19;12.20;99.90
22035;DHT22;11181;51.002;4.356;2023-03-31T16:14:49;12.20;99.90
22035;DHT22;11181;51.002;4.356;2023-03-31T16:17:24;12.20;99.90
22035;DHT22;11181;51.002;4.356;2023-03-31T16:19:57;12.20;99.90
22035;DHT22;11181;51.002;4.356;2023-03-31T16:22:33;12.10;99.90
22035;DHT22;11181;51.002;4.356;2023-03-31T16:25:08;12.10;99.90
22035;DHT22;11181;51.002;4.356;2023-03-31T16:27:38;12.00;99.90